sensor_id;sensor_type;location;lat;lon;timestamp;P1;durP1;ratioP1;P2;durP2;ratioP2
7479;SDS011;3781;42.272;22.658;2024-03-08T00:01:45;2.90;;;2.00;;
7479;SDS011;3781;42.272;22.658;2024-03-08T00:04:12;2.20;;;1.13;;
7479;SDS011;3781;42.272;22.658;2024-03-08T00:06:40;3.20;;;1.63;;
7479;SDS011;3781;42.272;22.658;2024-03-08T00:09:09;2.33;;;1.87;;
7479;SDS011;3781;42.272;22.658;2024-03-08T00:11:37;4.03;;;2.73;;
7479;SDS011;3781;42.272;22.658;2024-03-08T00:14:04;11.30;;;5.93;;
7479;SDS011;3781;42.272;22.658;2024-03-08T00:16:32;10.03;;;5.70;;
7479;SDS011;3781;42.272;22.658;2024-03-08T00:19:00;11.40;;;5.67;;
7479;SDS011;3781;42.272;22.658;2024-03-08T00:21:27;5.87;;;4.10;;
7479;SDS011;3781;42.272;22.658;2024-03-08T00:23:54;5.43;;;3.93;;
7479;SDS011;3781;42.272;22.658;2024-03-08T00:26:21;7.27;;;3.23;;
7479;SDS011;3781;42.272;22.658;2024-03-08T00:28:49;6.77;;;3.03;;
7479;SDS011;3781;42.272;22.658;2024-03-08T00:31:16;6.53;;;2.83;;
7479;SDS011;3781;42.272;22.658;2024-03-08T00:33:43;3.13;;;1.63;;
7479;SDS011;3781;42.272;22.658;2024-03-08T00:36:10;3.80;;;2.17;;
7479;SDS011;3781;42.272;22.658;2024-03-08T00:38:36;2.63;;;2.00;;
7479;SDS011;3781;42.272;22.658;2024-03-08T00:41:04;1.50;;;1.27;;
7479;SDS011;3781;42.272;22.658;2024-03-08T00:43:30;2.57;;;1.83;;
7479;SDS011;3781;42.272;22.658;2024-03-08T00:45:58;4.07;;;3.13;;
7479;SDS011;3781;42.272;22.658;2024-03-08T00:48:26;3.33;;;1.60;;
7479;SDS011;3781;42.272;22.658;2024-03-08T00:50:53;1.60;;;0.67;;
7479;SDS011;3781;42.272;22.658;2024-03-08T00:53:19;1.27;;;0.70;;
7479;SDS011;3781;42.272;22.658;2024-03-08T00:55:46;3.50;;;1.80;;
7479;SDS011;3781;42.272;22.658;2024-03-08T00:58:13;3.03;;;1.53;;
7479;SDS011;3781;42.272;22.658;2024-03-08T01:00:39;3.03;;;1.73;;
7479;SDS011;3781;42.272;22.658;2024-03-08T01:03:08;1.33;;;1.23;;
7479;SDS011;3781;42.272;22.658;2024-03-08T01:05:35;1.00;;;1.00;;
7479;SDS011;3781;42.272;22.658;2024-03-08T01:08:02;1.50;;;1.20;;
7479;SDS011;3781;42.272;22.658;2024-03-08T01:10:30;1.67;;;1.40;;
7479;SDS011;3781;42.272;22.658;2024-03-08T01:12:56;1.63;;;1.33;;
7479;SDS011;3781;42.272;22.658;2024-03-08T01:15:24;1.07;;;0.97;;
7479;SDS011;3781;42.272;22.658;2024-03-08T01:17:51;0.60;;;0.60;;
7479;SDS011;3781;42.272;22.658;2024-03-08T01:20:20;0.87;;;0.70;;
7479;SDS011;3781;42.272;22.658;2024-03-08T01:22:47;0.67;;;0.63;;
7479;SDS011;3781;42.272;22.658;2024-03-08T01:25:14;1.57;;;0.97;;
7479;SDS011;3781;42.272;22.658;2024-03-08T01:27:40;0.57;;;0.57;;
7479;SDS011;3781;42.272;22.658;2024-03-08T01:30:07;2.43;;;1.20;;
7479;SDS011;3781;42.272;22.658;2024-03-08T01:32:35;0.50;;;0.23;;
7479;SDS011;3781;42.272;22.658;2024-03-08T01:35:02;1.23;;;1.10;;
7479;SDS011;3781;42.272;22.658;2024-03-08T01:37:31;0.97;;;0.80;;
7479;SDS011;3781;42.272;22.658;2024-03-08T01:39:58;0.47;;;0.47;;
7479;SDS011;3781;42.272;22.658;2024-03-08T01:42:24;1.33;;;0.73;;
7479;SDS011;3781;42.272;22.658;2024-03-08T01:44:51;0.63;;;0.63;;
7479;SDS011;3781;42.272;22.658;2024-03-08T01:47:18;0.63;;;0.63;;
7479;SDS011;3781;42.272;22.658;2024-03-08T01:49:48;4.27;;;2.30;;
7479;SDS011;3781;42.272;22.658;2024-03-08T01:52:15;1.60;;;0.93;;
7479;SDS011;3781;42.272;22.658;2024-03-08T01:54:45;2.60;;;1.03;;
7479;SDS011;3781;42.272;22.658;2024-03-08T01:57:11;1.93;;;0.70;;
7479;SDS011;3781;42.272;22.658;2024-03-08T01:59:39;0.67;;;0.67;;
7479;SDS011;3781;42.272;22.658;2024-03-08T02:02:06;0.63;;;0.60;;
7479;SDS011;3781;42.272;22.658;2024-03-08T02:04:38;1.93;;;1.07;;
7479;SDS011;3781;42.272;22.658;2024-03-08T02:07:05;2.10;;;0.80;;
7479;SDS011;3781;42.272;22.658;2024-03-08T02:09:32;1.73;;;0.97;;
7479;SDS011;3781;42.272;22.658;2024-03-08T02:12:00;0.40;;;0.40;;
7479;SDS011;3781;42.272;22.658;2024-03-08T02:14:27;1.17;;;0.93;;
7479;SDS011;3781;42.272;22.658;2024-03-08T02:16:56;2.27;;;0.67;;
7479;SDS011;3781;42.272;22.658;2024-03-08T02:19:27;0.63;;;0.63;;
7479;SDS011;3781;42.272;22.658;2024-03-08T02:21:55;1.97;;;0.93;;
7479;SDS011;3781;42.272;22.658;2024-03-08T02:24:22;0.97;;;0.90;;
7479;SDS011;3781;42.272;22.658;2024-03-08T02:26:50;1.63;;;1.37;;
7479;SDS011;3781;42.272;22.658;2024-03-08T02:29:18;1.87;;;1.43;;
7479;SDS011;3781;42.272;22.658;2024-03-08T02:31:46;7.70;;;4.07;;
7479;SDS011;3781;42.272;22.658;2024-03-08T02:34:13;1.10;;;1.00;;
7479;SDS011;3781;42.272;22.658;2024-03-08T02:36:40;2.47;;;1.17;;
7479;SDS011;3781;42.272;22.658;2024-03-08T02:39:08;0.97;;;0.67;;
7479;SDS011;3781;42.272;22.658;2024-03-08T02:41:35;2.40;;;2.20;;
7479;SDS011;3781;42.272;22.658;2024-03-08T02:44:02;0.83;;;0.50;;
7479;SDS011;3781;42.272;22.658;2024-03-08T02:46:29;2.03;;;1.70;;
7479;SDS011;3781;42.272;22.658;2024-03-08T02:48:56;1.97;;;1.63;;
7479;SDS011;3781;42.272;22.658;2024-03-08T02:51:23;4.23;;;3.00;;
7479;SDS011;3781;42.272;22.658;2024-03-08T02:53:51;5.40;;;2.00;;
7479;SDS011;3781;42.272;22.658;2024-03-08T02:56:19;3.23;;;1.53;;
7479;SDS011;3781;42.272;22.658;2024-03-08T02:58:47;4.53;;;2.83;;
7479;SDS011;3781;42.272;22.658;2024-03-08T03:01:13;2.00;;;1.47;;
7479;SDS011;3781;42.272;22.658;2024-03-08T03:03:40;2.17;;;1.57;;
7479;SDS011;3781;42.272;22.658;2024-03-08T03:06:07;2.03;;;1.17;;
7479;SDS011;3781;42.272;22.658;2024-03-08T03:08:34;2.53;;;1.70;;
7479;SDS011;3781;42.272;22.658;2024-03-08T03:11:00;1.30;;;1.03;;
7479;SDS011;3781;42.272;22.658;2024-03-08T03:13:28;1.33;;;1.03;;
7479;SDS011;3781;42.272;22.658;2024-03-08T03:15:55;1.63;;;1.53;;
7479;SDS011;3781;42.272;22.658;2024-03-08T03:18:23;1.80;;;1.10;;
7479;SDS011;3781;42.272;22.658;2024-03-08T03:20:51;4.00;;;1.30;;
7479;SDS011;3781;42.272;22.658;2024-03-08T03:23:18;1.50;;;1.33;;
7479;SDS011;3781;42.272;22.658;2024-03-08T03:25:45;2.20;;;0.90;;
7479;SDS011;3781;42.272;22.658;2024-03-08T03:28:12;2.03;;;1.03;;
7479;SDS011;3781;42.272;22.658;2024-03-08T03:30:44;1.40;;;1.30;;
7479;SDS011;3781;42.272;22.658;2024-03-08T03:33:11;1.00;;;0.90;;
7479;SDS011;3781;42.272;22.658;2024-03-08T03:35:40;1.03;;;0.87;;
7479;SDS011;3781;42.272;22.658;2024-03-08T03:38:08;4.57;;;2.07;;
7479;SDS011;3781;42.272;22.658;2024-03-08T03:40:35;1.57;;;1.37;;
7479;SDS011;3781;42.272;22.658;2024-03-08T03:43:02;0.60;;;0.60;;
7479;SDS011;3781;42.272;22.658;2024-03-08T03:45:30;1.10;;;0.90;;
7479;SDS011;3781;42.272;22.658;2024-03-08T03:48:02;1.67;;;1.17;;
7479;SDS011;3781;42.272;22.658;2024-03-08T03:50:29;2.27;;;1.83;;
7479;SDS011;3781;42.272;22.658;2024-03-08T03:52:56;2.03;;;1.93;;
7479;SDS011;3781;42.272;22.658;2024-03-08T03:55:23;1.83;;;1.70;;
7479;SDS011;3781;42.272;22.658;2024-03-08T03:57:49;0.53;;;0.37;;
7479;SDS011;3781;42.272;22.658;2024-03-08T04:00:17;3.83;;;2.60;;
7479;SDS011;3781;42.272;22.658;2024-03-08T04:02:44;5.50;;;1.90;;
7479;SDS011;3781;42.272;22.658;2024-03-08T04:05:13;2.17;;;1.73;;
7479;SDS011;3781;42.272;22.658;2024-03-08T04:07:39;4.37;;;2.27;;
7479;SDS011;3781;42.272;22.658;2024-03-08T04:10:07;3.00;;;2.20;;
7479;SDS011;3781;42.272;22.658;2024-03-08T04:12:36;6.37;;;3.07;;
7479;SDS011;3781;42.272;22.658;2024-03-08T04:15:03;5.27;;;2.43;;
7479;SDS011;3781;42.272;22.658;2024-03-08T04:17:32;3.13;;;1.87;;
7479;SDS011;3781;42.272;22.658;2024-03-08T04:20:01;3.97;;;2.17;;
7479;SDS011;3781;42.272;22.658;2024-03-08T04:22:34;2.87;;;1.63;;
7479;SDS011;3781;42.272;22.658;2024-03-08T04:25:01;0.83;;;0.83;;
7479;SDS011;3781;42.272;22.658;2024-03-08T04:27:28;9.63;;;2.37;;
7479;SDS011;3781;42.272;22.658;2024-03-08T04:29:55;3.67;;;1.97;;
7479;SDS011;3781;42.272;22.658;2024-03-08T04:32:22;1.47;;;1.37;;
7479;SDS011;3781;42.272;22.658;2024-03-08T04:34:49;2.13;;;1.63;;
7479;SDS011;3781;42.272;22.658;2024-03-08T04:37:15;2.00;;;1.73;;
7479;SDS011;3781;42.272;22.658;2024-03-08T04:39:44;1.67;;;1.57;;
7479;SDS011;3781;42.272;22.658;2024-03-08T04:42:12;4.87;;;2.47;;
7479;SDS011;3781;42.272;22.658;2024-03-08T04:44:39;1.30;;;1.20;;
7479;SDS011;3781;42.272;22.658;2024-03-08T04:47:06;2.20;;;0.93;;
7479;SDS011;3781;42.272;22.658;2024-03-08T04:49:33;1.60;;;1.40;;
7479;SDS011;3781;42.272;22.658;2024-03-08T04:52:00;2.80;;;1.77;;
7479;SDS011;3781;42.272;22.658;2024-03-08T04:54:28;0.73;;;0.73;;
7479;SDS011;3781;42.272;22.658;2024-03-08T04:56:57;2.37;;;1.20;;
7479;SDS011;3781;42.272;22.658;2024-03-08T04:59:25;1.20;;;1.17;;
7479;SDS011;3781;42.272;22.658;2024-03-08T05:01:52;1.23;;;1.13;;
7479;SDS011;3781;42.272;22.658;2024-03-08T05:04:18;1.93;;;1.37;;
7479;SDS011;3781;42.272;22.658;2024-03-08T05:06:45;1.53;;;1.23;;
7479;SDS011;3781;42.272;22.658;2024-03-08T05:09:12;1.40;;;1.17;;
7479;SDS011;3781;42.272;22.658;2024-03-08T05:11:41;2.27;;;1.43;;
7479;SDS011;3781;42.272;22.658;2024-03-08T05:14:09;2.90;;;1.20;;
7479;SDS011;3781;42.272;22.658;2024-03-08T05:16:36;1.87;;;1.70;;
7479;SDS011;3781;42.272;22.658;2024-03-08T05:19:03;0.77;;;0.77;;
7479;SDS011;3781;42.272;22.658;2024-03-08T05:21:30;1.70;;;1.13;;
7479;SDS011;3781;42.272;22.658;2024-03-08T05:23:57;1.83;;;1.47;;
7479;SDS011;3781;42.272;22.658;2024-03-08T05:26:24;2.60;;;1.90;;
7479;SDS011;3781;42.272;22.658;2024-03-08T05:28:50;2.83;;;1.13;;
7479;SDS011;3781;42.272;22.658;2024-03-08T05:31:21;2.07;;;1.93;;
7479;SDS011;3781;42.272;22.658;2024-03-08T05:33:48;1.87;;;1.63;;
7479;SDS011;3781;42.272;22.658;2024-03-08T05:36:15;2.07;;;1.23;;
7479;SDS011;3781;42.272;22.658;2024-03-08T05:38:42;1.83;;;1.50;;
7479;SDS011;3781;42.272;22.658;2024-03-08T05:41:09;8.37;;;5.10;;
7479;SDS011;3781;42.272;22.658;2024-03-08T05:43:36;15.80;;;7.73;;
7479;SDS011;3781;42.272;22.658;2024-03-08T05:46:03;11.87;;;6.23;;
7479;SDS011;3781;42.272;22.658;2024-03-08T05:48:32;16.10;;;7.23;;
7479;SDS011;3781;42.272;22.658;2024-03-08T05:50:59;5.77;;;2.53;;
7479;SDS011;3781;42.272;22.658;2024-03-08T05:53:27;5.43;;;1.87;;
7479;SDS011;3781;42.272;22.658;2024-03-08T05:55:56;6.97;;;3.20;;
7479;SDS011;3781;42.272;22.658;2024-03-08T05:58:23;7.80;;;3.50;;
7479;SDS011;3781;42.272;22.658;2024-03-08T06:00:50;6.67;;;3.33;;
7479;SDS011;3781;42.272;22.658;2024-03-08T06:03:17;15.97;;;3.47;;
7479;SDS011;3781;42.272;22.658;2024-03-08T06:05:48;9.07;;;3.20;;
7479;SDS011;3781;42.272;22.658;2024-03-08T06:08:14;4.40;;;1.73;;
7479;SDS011;3781;42.272;22.658;2024-03-08T06:10:41;1.97;;;1.87;;
7479;SDS011;3781;42.272;22.658;2024-03-08T06:13:08;3.17;;;2.47;;
7479;SDS011;3781;42.272;22.658;2024-03-08T06:15:37;3.30;;;1.63;;
7479;SDS011;3781;42.272;22.658;2024-03-08T06:18:05;5.23;;;1.63;;
7479;SDS011;3781;42.272;22.658;2024-03-08T06:20:35;2.50;;;2.10;;
7479;SDS011;3781;42.272;22.658;2024-03-08T06:23:04;2.47;;;1.90;;
7479;SDS011;3781;42.272;22.658;2024-03-08T06:25:30;2.93;;;2.20;;
7479;SDS011;3781;42.272;22.658;2024-03-08T06:27:57;2.80;;;2.57;;
7479;SDS011;3781;42.272;22.658;2024-03-08T06:30:24;4.77;;;2.10;;
7479;SDS011;3781;42.272;22.658;2024-03-08T06:32:51;3.23;;;2.00;;
7479;SDS011;3781;42.272;22.658;2024-03-08T06:35:18;1.43;;;1.23;;
7479;SDS011;3781;42.272;22.658;2024-03-08T06:37:45;1.00;;;1.00;;
7479;SDS011;3781;42.272;22.658;2024-03-08T06:40:13;0.83;;;0.57;;
7479;SDS011;3781;42.272;22.658;2024-03-08T06:42:40;1.07;;;1.07;;
7479;SDS011;3781;42.272;22.658;2024-03-08T06:45:08;2.03;;;1.90;;
7479;SDS011;3781;42.272;22.658;2024-03-08T06:47:35;3.53;;;0.97;;
7479;SDS011;3781;42.272;22.658;2024-03-08T06:50:02;5.33;;;3.73;;
7479;SDS011;3781;42.272;22.658;2024-03-08T06:52:31;35.87;;;10.70;;
7479;SDS011;3781;42.272;22.658;2024-03-08T06:54:58;19.60;;;7.40;;
7479;SDS011;3781;42.272;22.658;2024-03-08T06:57:28;12.67;;;7.13;;
7479;SDS011;3781;42.272;22.658;2024-03-08T06:59:54;9.67;;;6.30;;
7479;SDS011;3781;42.272;22.658;2024-03-08T07:02:22;12.70;;;5.63;;
7479;SDS011;3781;42.272;22.658;2024-03-08T07:04:49;8.17;;;5.37;;
7479;SDS011;3781;42.272;22.658;2024-03-08T07:07:16;10.57;;;5.20;;
7479;SDS011;3781;42.272;22.658;2024-03-08T07:09:45;8.07;;;4.90;;
7479;SDS011;3781;42.272;22.658;2024-03-08T07:12:14;5.40;;;3.90;;
7479;SDS011;3781;42.272;22.658;2024-03-08T07:14:43;4.57;;;2.70;;
7479;SDS011;3781;42.272;22.658;2024-03-08T07:17:10;12.30;;;5.37;;
7479;SDS011;3781;42.272;22.658;2024-03-08T07:19:38;8.63;;;4.63;;
7479;SDS011;3781;42.272;22.658;2024-03-08T07:22:05;8.07;;;3.47;;
7479;SDS011;3781;42.272;22.658;2024-03-08T07:24:34;4.63;;;2.27;;
7479;SDS011;3781;42.272;22.658;2024-03-08T07:27:15;6.47;;;3.47;;
7479;SDS011;3781;42.272;22.658;2024-03-08T07:29:44;5.37;;;2.93;;
7479;SDS011;3781;42.272;22.658;2024-03-08T07:32:11;2.70;;;2.30;;
7479;SDS011;3781;42.272;22.658;2024-03-08T07:34:46;6.03;;;2.47;;
7479;SDS011;3781;42.272;22.658;2024-03-08T07:37:14;6.80;;;3.87;;
7479;SDS011;3781;42.272;22.658;2024-03-08T07:39:41;3.43;;;2.27;;
7479;SDS011;3781;42.272;22.658;2024-03-08T07:42:08;1.40;;;1.20;;
7479;SDS011;3781;42.272;22.658;2024-03-08T07:44:36;1.80;;;1.30;;
7479;SDS011;3781;42.272;22.658;2024-03-08T07:47:05;4.13;;;1.60;;
7479;SDS011;3781;42.272;22.658;2024-03-08T07:49:34;3.93;;;2.33;;
7479;SDS011;3781;42.272;22.658;2024-03-08T07:52:02;2.93;;;1.83;;
7479;SDS011;3781;42.272;22.658;2024-03-08T07:54:29;4.00;;;2.00;;
7479;SDS011;3781;42.272;22.658;2024-03-08T07:56:56;5.07;;;2.57;;
7479;SDS011;3781;42.272;22.658;2024-03-08T07:59:22;2.87;;;1.57;;
7479;SDS011;3781;42.272;22.658;2024-03-08T08:01:49;2.77;;;2.17;;
7479;SDS011;3781;42.272;22.658;2024-03-08T08:04:17;1.03;;;1.00;;
7479;SDS011;3781;42.272;22.658;2024-03-08T08:06:49;1.33;;;1.23;;
7479;SDS011;3781;42.272;22.658;2024-03-08T08:09:16;0.50;;;0.50;;
7479;SDS011;3781;42.272;22.658;2024-03-08T08:11:53;4.60;;;1.77;;
7479;SDS011;3781;42.272;22.658;2024-03-08T08:14:20;4.83;;;1.50;;
7479;SDS011;3781;42.272;22.658;2024-03-08T08:16:47;3.33;;;2.33;;
7479;SDS011;3781;42.272;22.658;2024-03-08T08:19:18;2.03;;;1.50;;
7479;SDS011;3781;42.272;22.658;2024-03-08T08:21:47;1.90;;;0.87;;
7479;SDS011;3781;42.272;22.658;2024-03-08T08:24:14;0.83;;;0.77;;
7479;SDS011;3781;42.272;22.658;2024-03-08T08:26:41;1.13;;;0.67;;
7479;SDS011;3781;42.272;22.658;2024-03-08T08:29:09;0.13;;;0.13;;
7479;SDS011;3781;42.272;22.658;2024-03-08T08:31:36;1.03;;;0.60;;
7479;SDS011;3781;42.272;22.658;2024-03-08T08:34:03;1.10;;;1.00;;
7479;SDS011;3781;42.272;22.658;2024-03-08T08:36:31;5.23;;;1.10;;
7479;SDS011;3781;42.272;22.658;2024-03-08T08:38:59;0.53;;;0.53;;
7479;SDS011;3781;42.272;22.658;2024-03-08T08:41:28;2.17;;;0.90;;
7479;SDS011;3781;42.272;22.658;2024-03-08T08:43:55;0.73;;;0.70;;
7479;SDS011;3781;42.272;22.658;2024-03-08T08:46:22;5.70;;;1.40;;
7479;SDS011;3781;42.272;22.658;2024-03-08T08:48:48;0.57;;;0.57;;
7479;SDS011;3781;42.272;22.658;2024-03-08T08:51:16;1.30;;;0.90;;
7479;SDS011;3781;42.272;22.658;2024-03-08T08:53:44;1.03;;;1.00;;
7479;SDS011;3781;42.272;22.658;2024-03-08T08:56:12;1.83;;;1.33;;
7479;SDS011;3781;42.272;22.658;2024-03-08T08:58:39;1.23;;;0.80;;
7479;SDS011;3781;42.272;22.658;2024-03-08T09:01:07;2.20;;;0.93;;
7479;SDS011;3781;42.272;22.658;2024-03-08T09:03:35;1.70;;;1.30;;
7479;SDS011;3781;42.272;22.658;2024-03-08T09:06:02;1.37;;;1.27;;
7479;SDS011;3781;42.272;22.658;2024-03-08T09:08:29;0.50;;;0.50;;
7479;SDS011;3781;42.272;22.658;2024-03-08T09:10:58;0.50;;;0.50;;
7479;SDS011;3781;42.272;22.658;2024-03-08T09:13:25;1.00;;;1.00;;
7479;SDS011;3781;42.272;22.658;2024-03-08T09:15:52;2.27;;;0.90;;
7479;SDS011;3781;42.272;22.658;2024-03-08T09:18:19;0.67;;;0.63;;
7479;SDS011;3781;42.272;22.658;2024-03-08T09:20:46;0.37;;;0.37;;
7479;SDS011;3781;42.272;22.658;2024-03-08T09:23:13;0.90;;;0.70;;
7479;SDS011;3781;42.272;22.658;2024-03-08T09:25:42;1.07;;;0.50;;
7479;SDS011;3781;42.272;22.658;2024-03-08T09:28:10;0.57;;;0.40;;
7479;SDS011;3781;42.272;22.658;2024-03-08T09:30:37;1.10;;;0.60;;
7479;SDS011;3781;42.272;22.658;2024-03-08T09:33:04;0.83;;;0.60;;
7479;SDS011;3781;42.272;22.658;2024-03-08T09:35:32;0.70;;;0.70;;
7479;SDS011;3781;42.272;22.658;2024-03-08T09:37:58;1.10;;;1.10;;
7479;SDS011;3781;42.272;22.658;2024-03-08T09:40:25;2.53;;;0.60;;
7479;SDS011;3781;42.272;22.658;2024-03-08T09:42:52;0.57;;;0.57;;
7479;SDS011;3781;42.272;22.658;2024-03-08T09:45:21;1.40;;;0.83;;
7479;SDS011;3781;42.272;22.658;2024-03-08T09:47:48;1.33;;;0.50;;
7479;SDS011;3781;42.272;22.658;2024-03-08T09:50:15;1.07;;;0.60;;
7479;SDS011;3781;42.272;22.658;2024-03-08T09:52:43;1.07;;;0.67;;
7479;SDS011;3781;42.272;22.658;2024-03-08T09:55:13;1.27;;;0.90;;
7479;SDS011;3781;42.272;22.658;2024-03-08T09:57:42;0.60;;;0.50;;
7479;SDS011;3781;42.272;22.658;2024-03-08T10:00:33;0.47;;;0.47;;
7479;SDS011;3781;42.272;22.658;2024-03-08T10:03:00;1.17;;;0.70;;
7479;SDS011;3781;42.272;22.658;2024-03-08T10:05:27;0.70;;;0.70;;
7479;SDS011;3781;42.272;22.658;2024-03-08T10:07:54;0.40;;;0.40;;
7479;SDS011;3781;42.272;22.658;2024-03-08T10:10:21;0.50;;;0.50;;
7479;SDS011;3781;42.272;22.658;2024-03-08T10:12:48;0.40;;;0.40;;
7479;SDS011;3781;42.272;22.658;2024-03-08T10:15:15;0.40;;;0.40;;
7479;SDS011;3781;42.272;22.658;2024-03-08T10:17:44;0.70;;;0.50;;
7479;SDS011;3781;42.272;22.658;2024-03-08T10:20:13;0.73;;;0.63;;
7479;SDS011;3781;42.272;22.658;2024-03-08T10:22:41;1.57;;;1.00;;
7479;SDS011;3781;42.272;22.658;2024-03-08T10:25:09;0.27;;;0.27;;
7479;SDS011;3781;42.272;22.658;2024-03-08T10:27:37;0.53;;;0.53;;
7479;SDS011;3781;42.272;22.658;2024-03-08T10:30:05;0.73;;;0.60;;
7479;SDS011;3781;42.272;22.658;2024-03-08T10:32:37;1.07;;;0.70;;
7479;SDS011;3781;42.272;22.658;2024-03-08T10:35:07;0.80;;;0.80;;
7479;SDS011;3781;42.272;22.658;2024-03-08T10:37:35;0.27;;;0.20;;
7479;SDS011;3781;42.272;22.658;2024-03-08T10:40:12;0.70;;;0.60;;
7479;SDS011;3781;42.272;22.658;2024-03-08T10:42:45;1.00;;;0.83;;
7479;SDS011;3781;42.272;22.658;2024-03-08T10:45:21;0.60;;;0.60;;
7479;SDS011;3781;42.272;22.658;2024-03-08T10:48:00;0.40;;;0.40;;
7479;SDS011;3781;42.272;22.658;2024-03-08T10:50:36;0.30;;;0.30;;
7479;SDS011;3781;42.272;22.658;2024-03-08T10:53:05;0.20;;;0.20;;
7479;SDS011;3781;42.272;22.658;2024-03-08T10:55:32;5.10;;;0.40;;
7479;SDS011;3781;42.272;22.658;2024-03-08T10:58:00;0.40;;;0.40;;
7479;SDS011;3781;42.272;22.658;2024-03-08T11:00:26;4.90;;;2.00;;
7479;SDS011;3781;42.272;22.658;2024-03-08T11:02:54;2.80;;;1.13;;
7479;SDS011;3781;42.272;22.658;2024-03-08T11:05:31;1.43;;;1.00;;
7479;SDS011;3781;42.272;22.658;2024-03-08T11:08:01;4.87;;;2.57;;
7479;SDS011;3781;42.272;22.658;2024-03-08T11:10:29;3.13;;;1.87;;
7479;SDS011;3781;42.272;22.658;2024-03-08T11:12:57;1.03;;;0.93;;
7479;SDS011;3781;42.272;22.658;2024-03-08T11:15:24;0.57;;;0.57;;
7479;SDS011;3781;42.272;22.658;2024-03-08T11:17:51;0.57;;;0.40;;
7479;SDS011;3781;42.272;22.658;2024-03-08T11:20:23;0.23;;;0.23;;
7479;SDS011;3781;42.272;22.658;2024-03-08T11:22:50;0.30;;;0.30;;
7479;SDS011;3781;42.272;22.658;2024-03-08T11:25:33;0.37;;;0.30;;
7479;SDS011;3781;42.272;22.658;2024-03-08T11:28:18;0.10;;;0.10;;
7479;SDS011;3781;42.272;22.658;2024-03-08T11:30:47;0.23;;;0.23;;
7479;SDS011;3781;42.272;22.658;2024-03-08T11:33:50;0.17;;;0.07;;
7479;SDS011;3781;42.272;22.658;2024-03-08T11:36:20;0.40;;;0.40;;
7479;SDS011;3781;42.272;22.658;2024-03-08T11:38:47;0.37;;;0.20;;
7479;SDS011;3781;42.272;22.658;2024-03-08T11:41:16;0.60;;;0.37;;
7479;SDS011;3781;42.272;22.658;2024-03-08T11:43:44;0.50;;;0.47;;
7479;SDS011;3781;42.272;22.658;2024-03-08T11:46:12;0.87;;;0.67;;
7479;SDS011;3781;42.272;22.658;2024-03-08T11:48:39;0.20;;;0.17;;
7479;SDS011;3781;42.272;22.658;2024-03-08T11:51:07;0.27;;;0.27;;
7479;SDS011;3781;42.272;22.658;2024-03-08T11:53:35;0.30;;;0.30;;
7479;SDS011;3781;42.272;22.658;2024-03-08T11:56:05;0.30;;;0.30;;
7479;SDS011;3781;42.272;22.658;2024-03-08T11:58:35;1.17;;;0.70;;
7479;SDS011;3781;42.272;22.658;2024-03-08T12:01:03;0.20;;;0.20;;
7479;SDS011;3781;42.272;22.658;2024-03-08T12:03:31;0.20;;;0.20;;
7479;SDS011;3781;42.272;22.658;2024-03-08T12:05:59;2.07;;;0.20;;
7479;SDS011;3781;42.272;22.658;2024-03-08T12:08:26;0.13;;;0.13;;
7479;SDS011;3781;42.272;22.658;2024-03-08T12:10:54;0.10;;;0.10;;
7479;SDS011;3781;42.272;22.658;2024-03-08T12:13:24;2.23;;;0.40;;
7479;SDS011;3781;42.272;22.658;2024-03-08T12:15:55;0.80;;;0.40;;
7479;SDS011;3781;42.272;22.658;2024-03-08T12:18:24;0.60;;;0.20;;
7479;SDS011;3781;42.272;22.658;2024-03-08T12:20:51;0.30;;;0.30;;
7479;SDS011;3781;42.272;22.658;2024-03-08T12:23:18;0.77;;;0.57;;
7479;SDS011;3781;42.272;22.658;2024-03-08T12:25:45;0.17;;;0.17;;
7479;SDS011;3781;42.272;22.658;2024-03-08T12:28:13;0.10;;;0.10;;
7479;SDS011;3781;42.272;22.658;2024-03-08T12:30:45;0.60;;;0.60;;
7479;SDS011;3781;42.272;22.658;2024-03-08T12:33:15;0.37;;;0.37;;
7479;SDS011;3781;42.272;22.658;2024-03-08T12:35:49;1.60;;;0.73;;
7479;SDS011;3781;42.272;22.658;2024-03-08T12:38:19;0.57;;;0.57;;
7479;SDS011;3781;42.272;22.658;2024-03-08T12:40:50;1.43;;;0.80;;
7479;SDS011;3781;42.272;22.658;2024-03-08T12:43:18;0.60;;;0.60;;
7479;SDS011;3781;42.272;22.658;2024-03-08T12:45:45;1.67;;;0.80;;
7479;SDS011;3781;42.272;22.658;2024-03-08T12:48:13;0.97;;;0.77;;
7479;SDS011;3781;42.272;22.658;2024-03-08T12:50:42;0.90;;;0.90;;
7479;SDS011;3781;42.272;22.658;2024-03-08T12:53:10;0.57;;;0.57;;
7479;SDS011;3781;42.272;22.658;2024-03-08T12:55:37;0.80;;;0.63;;
7479;SDS011;3781;42.272;22.658;2024-03-08T12:58:03;6.53;;;2.57;;
7479;SDS011;3781;42.272;22.658;2024-03-08T13:00:32;1.63;;;1.30;;
7479;SDS011;3781;42.272;22.658;2024-03-08T13:03:01;1.10;;;1.00;;
7479;SDS011;3781;42.272;22.658;2024-03-08T13:05:28;1.40;;;1.30;;
7479;SDS011;3781;42.272;22.658;2024-03-08T13:07:56;0.80;;;0.80;;
7479;SDS011;3781;42.272;22.658;2024-03-08T13:10:23;0.80;;;0.80;;
7479;SDS011;3781;42.272;22.658;2024-03-08T13:12:50;1.47;;;1.20;;
7479;SDS011;3781;42.272;22.658;2024-03-08T13:15:18;0.70;;;0.70;;
7479;SDS011;3781;42.272;22.658;2024-03-08T13:17:46;0.60;;;0.60;;
7479;SDS011;3781;42.272;22.658;2024-03-08T13:20:13;1.03;;;0.97;;
7479;SDS011;3781;42.272;22.658;2024-03-08T13:22:42;1.63;;;1.27;;
7479;SDS011;3781;42.272;22.658;2024-03-08T13:25:10;1.90;;;1.53;;
7479;SDS011;3781;42.272;22.658;2024-03-08T13:27:38;0.80;;;0.80;;
7479;SDS011;3781;42.272;22.658;2024-03-08T13:30:06;1.80;;;1.03;;
7479;SDS011;3781;42.272;22.658;2024-03-08T13:32:37;3.37;;;2.20;;
7479;SDS011;3781;42.272;22.658;2024-03-08T13:35:05;1.20;;;1.10;;
7479;SDS011;3781;42.272;22.658;2024-03-08T13:37:37;1.97;;;1.60;;
7479;SDS011;3781;42.272;22.658;2024-03-08T13:40:05;1.67;;;1.30;;
7479;SDS011;3781;42.272;22.658;2024-03-08T13:42:37;2.20;;;1.33;;
7479;SDS011;3781;42.272;22.658;2024-03-08T13:45:05;3.30;;;2.07;;
7479;SDS011;3781;42.272;22.658;2024-03-08T13:47:34;3.80;;;2.13;;
7479;SDS011;3781;42.272;22.658;2024-03-08T13:50:01;10.00;;;4.03;;
7479;SDS011;3781;42.272;22.658;2024-03-08T13:52:27;2.30;;;0.90;;
7479;SDS011;3781;42.272;22.658;2024-03-08T13:54:55;0.50;;;0.50;;
7479;SDS011;3781;42.272;22.658;2024-03-08T13:57:22;0.90;;;0.90;;
7479;SDS011;3781;42.272;22.658;2024-03-08T13:59:50;0.50;;;0.50;;
7479;SDS011;3781;42.272;22.658;2024-03-08T14:02:18;1.10;;;0.60;;
7479;SDS011;3781;42.272;22.658;2024-03-08T14:04:47;0.53;;;0.43;;
7479;SDS011;3781;42.272;22.658;2024-03-08T14:07:16;4.97;;;1.20;;
7479;SDS011;3781;42.272;22.658;2024-03-08T14:09:43;3.40;;;0.60;;
7479;SDS011;3781;42.272;22.658;2024-03-08T14:12:10;0.70;;;0.53;;
7479;SDS011;3781;42.272;22.658;2024-03-08T14:14:38;2.87;;;0.40;;
7479;SDS011;3781;42.272;22.658;2024-03-08T14:17:10;0.40;;;0.40;;
7479;SDS011;3781;42.272;22.658;2024-03-08T14:19:42;0.60;;;0.53;;
7479;SDS011;3781;42.272;22.658;2024-03-08T14:22:09;0.37;;;0.37;;
7479;SDS011;3781;42.272;22.658;2024-03-08T14:24:39;0.50;;;0.50;;
7479;SDS011;3781;42.272;22.658;2024-03-08T14:27:09;0.33;;;0.33;;
7479;SDS011;3781;42.272;22.658;2024-03-08T14:29:39;0.40;;;0.40;;
7479;SDS011;3781;42.272;22.658;2024-03-08T14:32:07;0.40;;;0.40;;
7479;SDS011;3781;42.272;22.658;2024-03-08T14:34:39;0.80;;;0.63;;
7479;SDS011;3781;42.272;22.658;2024-03-08T14:37:06;0.90;;;0.77;;
7479;SDS011;3781;42.272;22.658;2024-03-08T14:39:39;1.03;;;0.80;;
7479;SDS011;3781;42.272;22.658;2024-03-08T14:42:06;0.63;;;0.63;;
7479;SDS011;3781;42.272;22.658;2024-03-08T14:44:38;0.67;;;0.67;;
7479;SDS011;3781;42.272;22.658;2024-03-08T14:47:15;0.77;;;0.47;;
7479;SDS011;3781;42.272;22.658;2024-03-08T14:49:42;0.53;;;0.53;;
7479;SDS011;3781;42.272;22.658;2024-03-08T14:52:09;2.23;;;0.40;;
7479;SDS011;3781;42.272;22.658;2024-03-08T14:54:52;1.67;;;0.90;;
7479;SDS011;3781;42.272;22.658;2024-03-08T14:57:21;0.63;;;0.60;;
7479;SDS011;3781;42.272;22.658;2024-03-08T14:59:48;0.27;;;0.27;;
7479;SDS011;3781;42.272;22.658;2024-03-08T15:02:22;0.40;;;0.40;;
7479;SDS011;3781;42.272;22.658;2024-03-08T15:04:50;0.97;;;0.90;;
7479;SDS011;3781;42.272;22.658;2024-03-08T15:07:22;0.67;;;0.53;;